createdAt,value
2022-10-01T00:02:08.294Z,100.00
2022-10-01T00:04:40.056Z,100.00
2022-10-01T00:07:11.051Z,100.00
2022-10-01T00:09:39.012Z,100.00
2022-10-01T00:12:06.996Z,100.00
2022-10-01T00:14:35.900Z,100.00
2022-10-01T00:17:03.739Z,100.00
2022-10-01T00:19:31.656Z,100.00
2022-10-01T00:21:59.463Z,100.00
2022-10-01T00:24:27.375Z,100.00
2022-10-01T00:26:55.187Z,100.00
2022-10-01T00:29:22.991Z,100.00
2022-10-01T00:31:51.116Z,100.00
2022-10-01T00:34:18.990Z,100.00
2022-10-01T00:36:47.228Z,100.00
2022-10-01T00:39:15.132Z,100.00
2022-10-01T00:41:43.075Z,100.00
2022-10-01T00:44:37.270Z,100.00
2022-10-01T00:47:31.875Z,100.00
2022-10-01T00:50:28.451Z,100.00
2022-10-01T00:53:01.347Z,100.00
2022-10-01T00:55:34.577Z,100.00
2022-10-01T00:58:04.345Z,100.00
2022-10-01T01:00:32.731Z,100.00
2022-10-01T01:03:00.604Z,100.00
2022-10-01T01:05:28.586Z,100.00
2022-10-01T01:07:58.452Z,100.00
2022-10-01T01:10:50.245Z,100.00
2022-10-01T01:13:34.548Z,100.00
2022-10-01T01:16:16.183Z,100.00
2022-10-01T01:18:53.126Z,100.00
2022-10-01T01:21:36.992Z,100.00
2022-10-01T01:24:39.409Z,100.00
2022-10-01T01:27:46.402Z,100.00
2022-10-01T01:30:17.043Z,100.00
2022-10-01T01:32:55.709Z,100.00
2022-10-01T01:35:38.211Z,100.00
2022-10-01T01:38:11.572Z,100.00
2022-10-01T01:40:43.072Z,100.00
2022-10-01T01:43:20.647Z,100.00
2022-10-01T01:45:50.856Z,100.00
2022-10-01T01:48:18.729Z,100.00
2022-10-01T01:50:53.068Z,100.00
2022-10-01T01:53:21.306Z,100.00
2022-10-01T01:55:50.351Z,100.00
2022-10-01T01:58:20.771Z,100.00
2022-10-01T02:00:54.361Z,100.00
2022-10-01T02:03:25.927Z,100.00
2022-10-01T02:06:17.516Z,100.00
2022-10-01T02:09:00.894Z,100.00
2022-10-01T02:11:38.226Z,100.00
2022-10-01T02:14:21.151Z,100.00
2022-10-01T02:17:01.636Z,100.00
2022-10-01T02:19:52.651Z,100.00
2022-10-01T02:22:36.411Z,100.00
2022-10-01T02:25:06.402Z,100.00
2022-10-01T02:27:41.266Z,100.00
2022-10-01T02:30:11.344Z,100.00
2022-10-01T02:32:42.942Z,100.00
2022-10-01T02:35:15.610Z,100.00
2022-10-01T02:37:48.021Z,100.00
2022-10-01T02:40:20.461Z,100.00
2022-10-01T02:43:02.378Z,100.00
2022-10-01T02:45:35.224Z,100.00
2022-10-01T02:48:07.287Z,100.00
2022-10-01T02:50:51.337Z,100.00
2022-10-01T02:53:30.902Z,100.00
2022-10-01T02:56:01.252Z,100.00
2022-10-01T02:58:29.819Z,100.00
2022-10-01T03:00:57.699Z,100.00
2022-10-01T03:03:26.362Z,100.00
2022-10-01T03:05:54.327Z,100.00
2022-10-01T03:08:22.253Z,100.00
2022-10-01T03:10:50.657Z,100.00
2022-10-01T03:13:19.916Z,100.00
2022-10-01T03:15:47.786Z,100.00
2022-10-01T03:18:15.614Z,100.00
2022-10-01T03:20:43.587Z,100.00
2022-10-01T03:23:11.434Z,100.00
2022-10-01T03:25:39.361Z,100.00
2022-10-01T03:28:07.293Z,100.00
2022-10-01T03:30:35.179Z,100.00
2022-10-01T03:33:03.047Z,100.00
2022-10-01T03:35:32.429Z,100.00
2022-10-01T03:38:00.652Z,100.00
2022-10-01T03:40:29.082Z,100.00
2022-10-01T03:42:56.917Z,100.00
2022-10-01T03:45:24.800Z,100.00
2022-10-01T03:47:53.405Z,100.00
2022-10-01T03:50:22.076Z,100.00
2022-10-01T03:52:51.454Z,100.00
2022-10-01T03:55:19.416Z,100.00
2022-10-01T03:57:47.533Z,100.00
2022-10-01T04:00:15.498Z,100.00
2022-10-01T04:02:43.467Z,100.00
2022-10-01T04:05:12.523Z,100.00
2022-10-01T04:07:42.739Z,100.00
2022-10-01T04:10:10.569Z,100.00
2022-10-01T04:12:38.476Z,100.00
2022-10-01T04:15:06.625Z,100.00
2022-10-01T04:17:34.473Z,100.00
2022-10-01T04:20:02.361Z,100.00
2022-10-01T04:22:30.343Z,100.00
2022-10-01T04:24:58.180Z,100.00
2022-10-01T04:27:26.375Z,100.00
2022-10-01T04:29:54.297Z,100.00
2022-10-01T04:32:22.307Z,100.00
2022-10-01T04:34:53.006Z,100.00
2022-10-01T04:37:22.668Z,100.00
2022-10-01T04:39:51.005Z,100.00
2022-10-01T04:42:19.264Z,100.00
2022-10-01T04:44:47.888Z,100.00
2022-10-01T04:47:15.854Z,100.00
2022-10-01T04:49:43.691Z,100.00
2022-10-01T04:52:11.524Z,100.00
2022-10-01T04:54:39.372Z,100.00
2022-10-01T04:57:07.249Z,100.00
2022-10-01T04:59:35.092Z,100.00
2022-10-01T05:02:02.975Z,100.00
2022-10-01T05:04:30.950Z,100.00
2022-10-01T05:06:58.865Z,100.00
2022-10-01T05:09:26.739Z,100.00
2022-10-01T05:11:54.631Z,100.00
2022-10-01T05:14:22.565Z,100.00
2022-10-01T05:16:50.498Z,100.00
2022-10-01T05:19:18.498Z,100.00
2022-10-01T05:21:46.323Z,100.00
2022-10-01T05:24:15.403Z,100.00
2022-10-01T05:26:43.234Z,100.00
2022-10-01T05:29:11.434Z,100.00
2022-10-01T05:31:44.517Z,100.00
2022-10-01T05:34:12.868Z,100.00
2022-10-01T05:36:40.725Z,100.00
2022-10-01T05:39:08.617Z,100.00
2022-10-01T05:41:36.751Z,100.00
2022-10-01T05:44:06.318Z,100.00
2022-10-01T05:46:34.300Z,100.00
2022-10-01T05:49:02.206Z,100.00
2022-10-01T05:51:30.275Z,100.00
2022-10-01T05:54:01.879Z,100.00
2022-10-01T05:56:29.794Z,100.00
2022-10-01T05:58:57.660Z,100.00
2022-10-01T06:01:25.567Z,100.00
2022-10-01T06:03:53.513Z,100.00
2022-10-01T06:06:23.164Z,100.00
2022-10-01T06:08:51.145Z,100.00
2022-10-01T06:11:22.128Z,100.00
2022-10-01T06:13:51.006Z,100.00
2022-10-01T06:16:21.035Z,100.00
2022-10-01T06:18:49.760Z,100.00
2022-10-01T06:21:17.636Z,100.00
2022-10-01T06:23:45.982Z,100.00
2022-10-01T06:26:13.869Z,100.00
2022-10-01T06:28:41.731Z,100.00
2022-10-01T06:31:09.798Z,100.00
2022-10-01T06:33:37.806Z,100.00
2022-10-01T06:36:05.924Z,100.00
2022-10-01T06:38:33.888Z,100.00
2022-10-01T06:41:03.902Z,100.00
2022-10-01T06:43:33.006Z,100.00
2022-10-01T06:46:03.110Z,100.00
2022-10-01T06:48:32.559Z,100.00
2022-10-01T06:51:00.437Z,100.00
2022-10-01T06:53:29.075Z,100.00
2022-10-01T06:55:57.495Z,100.00
2022-10-01T06:58:28.448Z,100.00
2022-10-01T07:01:02.110Z,100.00
2022-10-01T07:03:31.271Z,100.00
2022-10-01T07:06:04.423Z,100.00
2022-10-01T07:08:33.421Z,100.00
2022-10-01T07:11:03.059Z,100.00
2022-10-01T07:13:31.064Z,100.00
2022-10-01T07:15:58.943Z,100.00
2022-10-01T07:18:27.127Z,100.00
2022-10-01T07:20:57.619Z,100.00
2022-10-01T07:23:25.713Z,100.00
2022-10-01T07:25:53.603Z,100.00
2022-10-01T07:28:24.120Z,100.00
2022-10-01T07:31:06.686Z,100.00
2022-10-01T07:33:34.556Z,100.00
2022-10-01T07:36:05.090Z,100.00
2022-10-01T07:38:33.992Z,100.00
2022-10-01T07:41:03.555Z,100.00
2022-10-01T07:43:35.275Z,100.00
2022-10-01T07:46:05.787Z,100.00
2022-10-01T07:48:33.682Z,100.00
2022-10-01T07:51:01.636Z,100.00
2022-10-01T07:53:29.526Z,100.00
2022-10-01T07:56:01.219Z,100.00
2022-10-01T07:58:29.097Z,100.00
2022-10-01T08:00:58.855Z,100.00
2022-10-01T08:03:27.361Z,100.00
2022-10-01T08:05:55.241Z,100.00
2022-10-01T08:08:23.288Z,100.00
2022-10-01T08:10:51.331Z,100.00
2022-10-01T08:13:20.576Z,100.00
2022-10-01T08:15:53.714Z,100.00
2022-10-01T08:18:23.673Z,100.00
2022-10-01T08:20:52.747Z,100.00
2022-10-01T08:23:20.803Z,100.00
2022-10-01T08:25:48.647Z,100.00
2022-10-01T08:28:16.623Z,100.00
2022-10-01T08:30:44.774Z,100.00
2022-10-01T08:33:13.568Z,100.00
2022-10-01T08:35:43.653Z,100.00
2022-10-01T08:38:13.039Z,100.00
2022-10-01T08:40:48.311Z,100.00
2022-10-01T08:43:33.929Z,100.00
2022-10-01T08:46:06.873Z,100.00
2022-10-01T08:48:47.747Z,100.00
2022-10-01T08:51:34.209Z,100.00
2022-10-01T08:54:29.032Z,100.00
2022-10-01T08:57:00.746Z,100.00
2022-10-01T08:59:47.434Z,100.00
2022-10-01T09:02:20.080Z,100.00
2022-10-01T09:04:51.117Z,100.00
2022-10-01T09:07:50.632Z,100.00
2022-10-01T09:13:50.415Z,100.00
2022-10-01T09:16:32.186Z,100.00
2022-10-01T09:19:40.759Z,100.00
2022-10-01T09:22:18.412Z,100.00
2022-10-01T09:25:07.470Z,100.00
2022-10-01T09:27:38.848Z,100.00
2022-10-01T09:30:18.429Z,100.00
2022-10-01T09:32:51.497Z,100.00
2022-10-01T09:35:44.384Z,99.99
2022-10-01T09:38:21.488Z,99.99
2022-10-01T09:40:55.443Z,100.00
2022-10-01T09:43:32.715Z,100.00
2022-10-01T09:46:04.684Z,100.00
2022-10-01T09:48:41.952Z,100.00
2022-10-01T09:51:40.039Z,99.92
2022-10-01T09:54:23.707Z,99.89
2022-10-01T09:57:00.723Z,99.69
2022-10-01T10:00:04.778Z,100.00
2022-10-01T10:02:39.190Z,99.42
2022-10-01T10:05:27.976Z,98.84
2022-10-01T10:08:02.284Z,98.99
2022-10-01T10:10:35.882Z,98.81
2022-10-01T10:13:08.042Z,98.76
2022-10-01T10:15:36.485Z,98.16
2022-10-01T10:18:11.664Z,98.15
2022-10-01T10:20:44.043Z,97.87
2022-10-01T10:23:23.174Z,98.18
2022-10-01T10:26:44.774Z,98.24
2022-10-01T10:29:27.733Z,98.06
2022-10-01T10:31:55.701Z,97.76
2022-10-01T10:34:42.324Z,97.61
2022-10-01T10:37:19.293Z,97.42
2022-10-01T10:39:54.098Z,97.60
2022-10-01T10:42:25.327Z,97.81
2022-10-01T10:44:57.140Z,97.87
2022-10-01T10:47:28.469Z,97.79
2022-10-01T10:50:00.903Z,97.77
2022-10-01T10:52:36.494Z,97.43
2022-10-01T10:55:26.998Z,97.19
2022-10-01T10:57:57.784Z,96.87
2022-10-01T11:00:26.498Z,96.73
2022-10-01T11:02:59.269Z,96.33
2022-10-01T11:05:35.295Z,96.52
2022-10-01T11:08:05.454Z,96.38
2022-10-01T11:10:36.682Z,96.15
2022-10-01T11:13:33.586Z,96.18
2022-10-01T11:16:24.426Z,96.00
2022-10-01T11:18:58.550Z,95.94
2022-10-01T11:21:41.880Z,95.70
2022-10-01T11:24:54.371Z,95.50
2022-10-01T11:27:37.505Z,96.06
2022-10-01T11:30:26.575Z,96.02
2022-10-01T11:33:26.416Z,95.73
2022-10-01T11:36:03.111Z,95.82
2022-10-01T11:38:45.844Z,95.35
2022-10-01T11:41:31.956Z,94.65
2022-10-01T11:44:22.222Z,94.56
2022-10-01T11:46:59.230Z,94.35
2022-10-01T11:49:42.078Z,94.08
2022-10-01T11:52:09.873Z,94.32
2022-10-01T11:54:54.258Z,94.33
2022-10-01T11:57:45.317Z,94.00
2022-10-01T12:00:14.366Z,93.17
2022-10-01T12:02:58.777Z,92.51
2022-10-01T12:05:31.539Z,92.67
2022-10-01T12:08:12.637Z,92.68
2022-10-01T12:10:50.984Z,92.80
2022-10-01T12:13:28.032Z,92.64
2022-10-01T12:16:08.794Z,92.51
2022-10-01T12:18:51.960Z,92.65
2022-10-01T12:21:26.643Z,92.70
2022-10-01T12:24:02.854Z,92.12
2022-10-01T12:26:43.481Z,92.80
2022-10-01T12:29:31.074Z,92.59
2022-10-01T12:32:03.513Z,92.30
2022-10-01T12:34:53.972Z,92.55
2022-10-01T12:37:44.894Z,92.93
2022-10-01T12:40:47.099Z,93.06
2022-10-01T12:43:31.626Z,92.04
2022-10-01T12:46:14.772Z,91.94
2022-10-01T12:49:04.254Z,92.71
2022-10-01T12:51:45.163Z,92.63
2022-10-01T12:54:19.104Z,92.91
2022-10-01T12:57:20.022Z,91.76
2022-10-01T13:00:05.274Z,91.60
2022-10-01T13:03:21.764Z,91.67
2022-10-01T13:05:58.795Z,91.91
2022-10-01T13:08:43.159Z,91.52
2022-10-01T13:11:40.597Z,91.57
2022-10-01T13:14:17.018Z,91.84
2022-10-01T13:16:49.987Z,91.13
2022-10-01T13:19:40.544Z,90.93
2022-10-01T13:22:38.409Z,92.19
2022-10-01T13:25:39.957Z,91.90
2022-10-01T13:28:32.259Z,91.56
2022-10-01T13:31:10.203Z,91.17
2022-10-01T13:33:38.185Z,91.11
2022-10-01T13:36:08.330Z,91.27
2022-10-01T13:38:42.866Z,91.82
2022-10-01T13:41:28.746Z,91.15
2022-10-01T13:44:18.716Z,92.02
2022-10-01T13:47:03.499Z,94.78
2022-10-01T13:49:32.247Z,96.65
2022-10-01T13:52:03.139Z,93.40
2022-10-01T13:54:50.206Z,92.40
2022-10-01T13:57:34.278Z,92.77
2022-10-01T14:00:08.492Z,92.48
2022-10-01T14:02:38.381Z,92.24
2022-10-01T14:05:18.373Z,91.27
2022-10-01T14:07:50.344Z,90.78
2022-10-01T14:10:19.529Z,91.56
2022-10-01T14:13:07.246Z,90.18
2022-10-01T14:16:00.324Z,94.65
2022-10-01T14:18:42.954Z,92.47
2022-10-01T14:21:16.513Z,91.81
2022-10-01T14:24:01.444Z,90.70
2022-10-01T14:26:34.741Z,92.41
2022-10-01T14:29:23.723Z,90.13
2022-10-01T14:32:10.444Z,91.69
2022-10-01T14:35:19.587Z,94.06
2022-10-01T14:37:47.653Z,91.52
2022-10-01T14:40:18.385Z,89.94
2022-10-01T14:43:05.629Z,93.95
2022-10-01T14:45:33.683Z,91.83
2022-10-01T14:48:07.059Z,92.15
2022-10-01T14:50:37.747Z,92.06
2022-10-01T14:53:07.062Z,90.61
2022-10-01T14:55:35.924Z,91.62
2022-10-01T14:58:05.280Z,93.19
2022-10-01T15:00:34.955Z,91.01
2022-10-01T15:03:17.918Z,90.08
2022-10-01T15:05:49.175Z,90.73
2022-10-01T15:08:44.862Z,90.26
2022-10-01T15:11:34.376Z,91.68
2022-10-01T15:14:08.381Z,89.77
2022-10-01T15:16:37.501Z,92.12
2022-10-01T15:19:19.498Z,90.27
2022-10-01T15:21:57.089Z,89.41
2022-10-01T15:24:57.973Z,88.82
2022-10-01T15:27:26.208Z,89.23
2022-10-01T15:29:58.768Z,92.19
2022-10-01T15:32:28.445Z,90.48
2022-10-01T15:35:00.143Z,90.26
2022-10-01T15:37:36.877Z,90.81
2022-10-01T15:40:10.359Z,90.10
2022-10-01T15:42:38.670Z,89.58
2022-10-01T15:45:06.680Z,90.15
2022-10-01T15:47:52.460Z,90.15
2022-10-01T15:50:27.201Z,90.39
2022-10-01T15:53:16.670Z,89.02
2022-10-01T15:55:47.893Z,88.82
2022-10-01T15:58:30.476Z,89.03
2022-10-01T16:01:22.707Z,89.21
2022-10-01T16:04:07.010Z,89.41
2022-10-01T16:06:44.060Z,89.19
2022-10-01T16:09:15.821Z,89.62
2022-10-01T16:12:04.167Z,89.76
2022-10-01T16:14:32.418Z,89.95
2022-10-01T16:17:27.027Z,89.98
2022-10-01T16:19:57.776Z,89.86
2022-10-01T16:22:33.458Z,90.09
2022-10-01T16:25:17.838Z,90.37
2022-10-01T16:27:50.066Z,90.64
2022-10-01T16:30:27.260Z,90.82
2022-10-01T16:32:56.896Z,91.07
2022-10-01T16:35:24.699Z,90.95
2022-10-01T16:37:56.368Z,91.55
2022-10-01T16:40:32.628Z,92.05
2022-10-01T16:43:01.166Z,91.96
2022-10-01T16:45:37.084Z,91.97
2022-10-01T16:48:17.124Z,92.19
2022-10-01T16:50:46.695Z,92.30
2022-10-01T16:53:16.888Z,93.02
2022-10-01T16:55:45.947Z,92.80
2022-10-01T16:58:14.196Z,92.79
2022-10-01T17:00:42.898Z,92.98
2022-10-01T17:03:22.670Z,93.11
2022-10-01T17:05:50.672Z,93.37
2022-10-01T17:08:18.567Z,93.28
2022-10-01T17:11:00.164Z,93.21
2022-10-01T17:13:32.984Z,93.63
2022-10-01T17:16:02.032Z,93.72
2022-10-01T17:18:30.128Z,94.50
2022-10-01T17:20:59.838Z,94.60
2022-10-01T17:23:27.829Z,94.77
2022-10-01T17:25:55.827Z,94.57
2022-10-01T17:28:24.785Z,94.92
2022-10-01T17:30:53.059Z,95.05
2022-10-01T17:33:20.973Z,94.87
2022-10-01T17:35:53.591Z,94.81
2022-10-01T17:38:23.162Z,94.95
2022-10-01T17:40:56.340Z,95.21
2022-10-01T17:43:25.294Z,95.18
2022-10-01T17:45:58.999Z,95.16
2022-10-01T17:48:28.407Z,95.04
2022-10-01T17:51:09.557Z,95.23
2022-10-01T17:53:42.284Z,95.16
2022-10-01T17:56:16.183Z,95.04
2022-10-01T17:58:45.914Z,95.53
2022-10-01T18:01:20.589Z,95.69
2022-10-01T18:03:55.090Z,95.74
2022-10-01T18:06:25.751Z,95.71
2022-10-01T18:08:55.926Z,95.71
2022-10-01T18:11:28.403Z,95.57
2022-10-01T18:13:57.260Z,95.57
2022-10-01T18:16:26.675Z,95.60
2022-10-01T18:21:49.027Z,95.49
2022-10-01T18:24:18.059Z,95.66
2022-10-01T18:26:48.262Z,95.54
2022-10-01T18:29:20.223Z,95.81
2022-10-01T18:31:52.804Z,95.33
2022-10-01T18:34:29.203Z,95.28
2022-10-01T18:37:26.779Z,95.19
2022-10-01T18:40:10.740Z,95.03
2022-10-01T18:42:50.336Z,95.62
2022-10-01T18:45:41.842Z,96.69
2022-10-01T18:48:42.923Z,97.30
2022-10-01T18:51:35.346Z,97.72
2022-10-01T18:54:06.713Z,97.46
2022-10-01T18:56:38.288Z,97.55
2022-10-01T18:59:14.625Z,97.60
2022-10-01T19:01:58.528Z,97.86
2022-10-01T19:05:11.033Z,98.35
2022-10-01T19:08:01.384Z,98.49
2022-10-01T19:10:40.146Z,98.91
2022-10-01T19:13:16.014Z,98.92
2022-10-01T19:15:54.323Z,98.98
2022-10-01T19:18:50.933Z,99.37
2022-10-01T19:21:25.127Z,99.72
2022-10-01T19:23:55.850Z,99.76
2022-10-01T19:26:52.290Z,99.69
2022-10-01T19:29:45.732Z,99.78
2022-10-01T19:32:20.094Z,99.59
2022-10-01T19:35:14.083Z,99.47
2022-10-01T19:37:49.340Z,98.60
2022-10-01T19:40:41.814Z,98.49
2022-10-01T19:43:31.976Z,98.93
2022-10-01T19:46:20.800Z,98.53
2022-10-01T19:49:13.625Z,98.96
2022-10-01T19:51:44.834Z,98.97
2022-10-01T19:54:20.161Z,99.12
2022-10-01T19:56:53.153Z,99.30
2022-10-01T19:59:21.633Z,99.26
2022-10-01T20:01:55.492Z,99.62
2022-10-01T20:04:30.569Z,99.88
2022-10-01T20:07:10.083Z,99.97
2022-10-01T20:10:10.116Z,100.00
2022-10-01T20:13:23.219Z,100.00
2022-10-01T20:16:32.953Z,100.00
2022-10-01T20:19:29.843Z,100.00
2022-10-01T20:22:11.706Z,100.00
2022-10-01T20:24:59.032Z,100.00
2022-10-01T20:27:39.060Z,100.00
2022-10-01T20:30:11.134Z,100.00
2022-10-01T20:32:51.577Z,100.00
2022-10-01T20:35:31.448Z,99.92
2022-10-01T20:38:02.362Z,100.00
2022-10-01T20:40:40.226Z,100.00
2022-10-01T20:43:30.713Z,100.00
2022-10-01T20:46:03.292Z,100.00
2022-10-01T20:48:37.861Z,99.96
2022-10-01T20:51:09.779Z,100.00
2022-10-01T20:53:50.533Z,100.00
2022-10-01T20:56:28.649Z,100.00
2022-10-01T20:59:03.950Z,100.00
2022-10-01T21:01:36.269Z,100.00
2022-10-01T21:04:13.468Z,100.00
2022-10-01T21:06:46.630Z,100.00
2022-10-01T21:09:41.001Z,100.00
2022-10-01T21:12:35.126Z,100.00
2022-10-01T21:15:04.366Z,100.00
2022-10-01T21:17:53.673Z,100.00
2022-10-01T21:20:40.498Z,100.00
2022-10-01T21:23:53.762Z,100.00
2022-10-01T21:26:35.767Z,100.00
2022-10-01T21:29:29.468Z,100.00
2022-10-01T21:32:24.975Z,100.00
2022-10-01T21:35:11.712Z,100.00
2022-10-01T21:37:55.110Z,100.00
2022-10-01T21:40:25.681Z,100.00
2022-10-01T21:43:10.515Z,100.00
2022-10-01T21:46:13.646Z,100.00
2022-10-01T21:48:47.570Z,100.00
2022-10-01T21:51:18.669Z,100.00
2022-10-01T21:54:09.480Z,100.00
2022-10-01T21:56:46.077Z,100.00
2022-10-01T21:59:17.037Z,100.00
2022-10-01T22:02:10.095Z,100.00
2022-10-01T22:04:46.557Z,100.00
2022-10-01T22:07:25.158Z,100.00
2022-10-01T22:10:05.921Z,100.00
2022-10-01T22:12:38.667Z,100.00
2022-10-01T22:15:39.730Z,100.00
2022-10-01T22:18:15.037Z,100.00
2022-10-01T22:20:45.285Z,100.00
2022-10-01T22:23:18.002Z,100.00
2022-10-01T22:25:54.973Z,100.00
2022-10-01T22:28:36.527Z,100.00
2022-10-01T22:31:06.749Z,100.00
2022-10-01T22:33:43.220Z,100.00
2022-10-01T22:36:13.949Z,100.00
2022-10-01T22:38:54.298Z,100.00
2022-10-01T22:41:28.325Z,100.00
2022-10-01T22:43:56.442Z,100.00
2022-10-01T22:46:53.823Z,100.00
2022-10-01T22:49:24.728Z,100.00
2022-10-01T22:52:13.684Z,100.00
2022-10-01T22:55:18.795Z,100.00
2022-10-01T22:57:52.371Z,100.00
2022-10-01T23:00:21.447Z,100.00
2022-10-01T23:03:13.473Z,100.00
2022-10-01T23:05:47.092Z,100.00
2022-10-01T23:08:35.955Z,100.00
2022-10-01T23:11:11.814Z,100.00
2022-10-01T23:14:08.771Z,100.00
2022-10-01T23:16:42.485Z,100.00
2022-10-01T23:19:36.001Z,100.00
2022-10-01T23:22:26.108Z,100.00
2022-10-01T23:25:06.262Z,100.00
2022-10-01T23:28:01.643Z,100.00
2022-10-01T23:31:02.059Z,100.00
2022-10-01T23:33:49.769Z,100.00
2022-10-01T23:36:31.388Z,100.00
2022-10-01T23:39:36.926Z,100.00
2022-10-01T23:42:28.030Z,100.00
2022-10-01T23:45:23.716Z,100.00
2022-10-01T23:48:01.759Z,100.00
2022-10-01T23:51:02.193Z,100.00
2022-10-01T23:53:59.182Z,100.00
2022-10-01T23:56:48.859Z,100.00
2022-10-01T23:59:31.986Z,100.00
